createdAt,value
2023-02-01T00:00:09.869Z,83.93
2023-02-01T00:02:40.959Z,84.17
2023-02-01T00:05:10.114Z,84.43
2023-02-01T00:07:38.697Z,84.24
2023-02-01T00:10:07.797Z,84.22
2023-02-01T00:12:36.388Z,84.22
2023-02-01T00:15:05.388Z,84.34
2023-02-01T00:17:37.143Z,84.32
2023-02-01T00:20:06.680Z,84.32
2023-02-01T00:22:35.550Z,84.14
2023-02-01T00:25:04.846Z,84.10
2023-02-01T00:27:33.437Z,83.95
2023-02-01T00:30:01.636Z,83.92
2023-02-01T00:32:30.203Z,83.73
2023-02-01T00:34:58.494Z,83.65
2023-02-01T00:37:26.660Z,83.60
2023-02-01T00:39:56.847Z,83.35
2023-02-01T00:42:25.372Z,83.32
2023-02-01T00:44:54.068Z,83.18
2023-02-01T00:47:23.233Z,82.94
2023-02-01T00:49:51.978Z,83.20
2023-02-01T00:52:20.130Z,83.20
2023-02-01T00:54:48.413Z,83.10
2023-02-01T00:57:16.679Z,83.03
2023-02-01T00:59:44.880Z,82.96
2023-02-01T01:02:15.366Z,82.94
2023-02-01T01:04:45.015Z,83.14
2023-02-01T01:07:13.243Z,83.25
2023-02-01T01:09:42.201Z,83.57
2023-02-01T01:12:10.982Z,83.68
2023-02-01T01:14:39.151Z,83.55
2023-02-01T01:17:07.544Z,83.73
2023-02-01T01:19:35.855Z,83.74
2023-02-01T01:22:04.719Z,83.77
2023-02-01T01:24:32.906Z,83.72
2023-02-01T01:27:01.389Z,83.47
2023-02-01T01:29:29.976Z,83.26
2023-02-01T01:31:58.133Z,83.21
2023-02-01T01:34:26.636Z,83.08
2023-02-01T01:36:54.809Z,83.31
2023-02-01T01:39:23.215Z,83.42
2023-02-01T01:41:51.580Z,83.59
2023-02-01T01:44:56.014Z,84.06
2023-02-01T01:47:25.537Z,84.15
2023-02-01T01:49:54.186Z,83.91
2023-02-01T01:52:22.674Z,83.80
2023-02-01T01:54:52.486Z,83.63
2023-02-01T01:57:24.487Z,83.67
2023-02-01T01:59:56.965Z,83.49
2023-02-01T02:02:26.073Z,83.23
2023-02-01T02:04:55.243Z,83.13
2023-02-01T02:07:26.795Z,83.18
2023-02-01T06:44:59.704Z,90.73
2023-02-01T06:47:28.289Z,90.41
2023-02-01T06:49:56.482Z,90.12
2023-02-01T06:52:25.564Z,89.58
2023-02-01T06:54:53.848Z,89.08
2023-02-01T06:57:22.006Z,88.43
2023-02-01T06:59:50.315Z,88.17
2023-02-01T07:02:18.718Z,87.60
2023-02-01T07:04:47.991Z,86.81
2023-02-01T07:07:16.886Z,86.59
2023-02-01T07:09:46.088Z,85.90
2023-02-01T07:12:15.227Z,85.58
2023-02-01T07:14:43.288Z,84.84
2023-02-01T07:17:11.651Z,84.47
2023-02-01T07:19:39.888Z,83.83
2023-02-01T07:22:08.195Z,83.39
2023-02-01T07:24:36.707Z,82.98
2023-02-01T07:27:05.145Z,82.96
2023-02-01T07:29:33.384Z,82.57
2023-02-01T07:32:03.498Z,82.09
2023-02-01T07:34:32.018Z,81.77
2023-02-01T07:37:00.352Z,80.97
2023-02-01T07:39:29.478Z,80.82
2023-02-01T07:41:58.294Z,80.44
2023-02-01T07:44:26.649Z,80.30
2023-02-01T07:46:55.298Z,79.74
2023-02-01T07:49:23.497Z,79.43
2023-02-01T07:51:52.015Z,79.23
2023-02-01T07:54:20.191Z,78.67
2023-02-01T07:56:48.355Z,78.60
2023-02-01T07:59:17.128Z,78.33
2023-02-01T08:01:45.342Z,78.11
2023-02-01T08:04:14.272Z,77.83
2023-02-01T08:06:42.400Z,77.35
2023-02-01T08:09:12.236Z,76.92
2023-02-01T08:11:40.783Z,76.70
2023-02-01T08:14:11.831Z,76.31
2023-02-01T08:16:40.386Z,76.75
2023-02-01T08:19:09.445Z,76.56
2023-02-01T08:21:37.967Z,75.62
2023-02-01T08:24:07.488Z,75.04
2023-02-01T08:26:39.026Z,75.15
2023-02-01T08:29:07.953Z,75.48
2023-02-01T08:31:36.282Z,75.15
2023-02-01T08:34:05.406Z,75.33
2023-02-01T08:36:33.940Z,75.62
2023-02-01T08:39:02.324Z,75.99
2023-02-01T08:41:30.997Z,76.07
2023-02-01T08:43:59.732Z,75.40
2023-02-01T08:46:28.572Z,75.07
2023-02-01T08:48:57.390Z,75.08
2023-02-01T08:51:26.784Z,75.90
2023-02-01T08:53:54.907Z,76.26
2023-02-01T08:56:23.819Z,76.12
2023-02-01T08:58:53.131Z,76.97
2023-02-01T09:01:21.770Z,76.52
2023-02-01T09:03:50.662Z,76.60
2023-02-01T09:06:18.854Z,76.16
2023-02-01T09:08:50.404Z,76.05
2023-02-01T09:11:20.437Z,76.58
2023-02-01T09:13:49.936Z,77.05
2023-02-01T09:16:18.286Z,77.06
2023-02-01T09:19:01.643Z,76.91
2023-02-01T09:21:35.786Z,76.86
2023-02-01T09:24:05.193Z,76.35
2023-02-01T09:26:34.019Z,76.09
2023-02-01T09:29:02.330Z,76.15
2023-02-01T09:31:31.564Z,75.73
2023-02-01T09:34:00.179Z,76.04
2023-02-01T09:36:30.233Z,76.02
2023-02-01T09:39:00.363Z,75.74
2023-02-01T09:41:58.318Z,75.16
2023-02-01T09:44:46.823Z,75.04
2023-02-01T09:47:19.704Z,75.29
2023-02-01T09:50:04.297Z,75.51
2023-02-01T09:52:54.366Z,76.07
2023-02-01T09:55:33.389Z,75.88
2023-02-01T09:58:11.412Z,76.60
2023-02-01T10:00:40.208Z,76.48
2023-02-01T10:03:12.465Z,76.27
2023-02-01T10:05:56.087Z,76.46
2023-02-01T10:08:33.379Z,76.81
2023-02-01T10:11:09.472Z,76.14
2023-02-01T10:14:05.888Z,75.09
2023-02-01T10:16:54.044Z,75.49
2023-02-01T10:19:40.565Z,74.94
2023-02-01T10:22:15.413Z,74.68
2023-02-01T10:24:58.400Z,74.96
2023-02-01T10:27:31.615Z,75.28
2023-02-01T10:30:00.939Z,75.27
2023-02-01T10:32:31.791Z,75.28
2023-02-01T10:35:09.404Z,75.32
2023-02-01T10:37:38.070Z,75.44
2023-02-01T10:40:26.883Z,75.88
2023-02-01T10:42:59.278Z,76.11
2023-02-01T10:45:31.958Z,75.89
2023-02-01T10:48:00.985Z,76.31
2023-02-01T10:50:29.137Z,76.20
2023-02-01T10:53:02.025Z,76.69
2023-02-01T10:55:42.639Z,76.83
2023-02-01T10:58:32.655Z,76.46
2023-02-01T11:01:04.815Z,76.55
2023-02-01T11:03:37.974Z,76.75
2023-02-01T11:06:15.248Z,77.02
2023-02-01T11:08:46.159Z,76.78
2023-02-01T11:11:14.430Z,76.89
2023-02-01T11:13:42.712Z,77.00
2023-02-01T11:16:14.005Z,76.89
2023-02-01T11:18:42.142Z,77.05
2023-02-01T11:21:11.031Z,77.02
2023-02-01T11:23:44.395Z,76.66
2023-02-01T11:26:32.329Z,77.22
2023-02-01T11:29:06.030Z,76.26
2023-02-01T11:31:34.616Z,76.67
2023-02-01T11:34:09.072Z,76.91
2023-02-01T11:36:37.775Z,76.49
2023-02-01T11:39:21.330Z,76.24
2023-02-01T11:41:58.599Z,76.22
2023-02-01T11:44:31.840Z,76.62
2023-02-01T11:47:29.321Z,77.03
2023-02-01T11:50:01.318Z,77.39
2023-02-01T11:52:43.138Z,77.99
2023-02-01T11:55:17.457Z,78.14
2023-02-01T11:57:48.853Z,78.11
2023-02-01T12:00:39.588Z,77.94
2023-02-01T12:03:39.285Z,78.17
2023-02-01T12:06:16.423Z,78.39
2023-02-01T12:08:47.439Z,78.65
2023-02-01T12:11:37.744Z,78.23
2023-02-01T12:14:23.427Z,77.78
2023-02-01T12:16:57.993Z,78.01
2023-02-01T12:20:04.490Z,78.02
2023-02-01T12:22:39.534Z,78.33
2023-02-01T12:25:14.057Z,78.90
2023-02-01T12:27:47.287Z,78.95
2023-02-01T12:30:31.666Z,78.40
2023-02-01T12:33:48.588Z,78.33
2023-02-01T12:36:24.859Z,78.57
2023-02-01T12:39:08.505Z,78.54
2023-02-01T12:41:45.888Z,78.78
2023-02-01T12:44:18.572Z,79.18
2023-02-01T12:47:02.483Z,79.09
2023-02-01T12:49:50.624Z,79.34
2023-02-01T12:52:24.590Z,79.55
2023-02-01T12:54:59.671Z,79.85
2023-02-01T12:57:33.477Z,79.93
2023-02-01T13:00:14.848Z,79.91
2023-02-01T13:02:46.103Z,79.64
2023-02-01T13:05:14.284Z,80.06
2023-02-01T13:08:13.956Z,80.01
2023-02-01T13:10:53.930Z,80.25
2023-02-01T13:13:41.757Z,80.13
2023-02-01T13:16:19.148Z,79.48
2023-02-01T13:18:51.126Z,79.44
2023-02-01T13:21:32.057Z,79.93
2023-02-01T13:24:00.229Z,80.26
2023-02-01T13:26:29.062Z,80.43
2023-02-01T13:29:03.067Z,80.24
2023-02-01T13:32:18.542Z,80.19
2023-02-01T13:35:11.848Z,80.77
2023-02-01T13:37:58.500Z,81.30
2023-02-01T13:40:45.375Z,81.31
2023-02-01T13:43:30.540Z,81.55
2023-02-01T13:46:08.257Z,81.56
2023-02-01T13:48:55.364Z,81.36
2023-02-01T13:51:48.496Z,81.35
2023-02-01T13:54:37.754Z,81.26
2023-02-01T18:21:53.224Z,89.30
2023-02-01T18:24:23.528Z,89.26
2023-02-01T18:26:52.295Z,89.11
2023-02-01T18:29:21.472Z,89.08
2023-02-01T18:31:51.119Z,88.65
2023-02-01T18:34:25.473Z,88.15
2023-02-01T18:36:54.095Z,87.98
2023-02-01T18:39:22.683Z,87.61
2023-02-01T18:41:51.949Z,87.41
2023-02-01T18:44:20.162Z,87.21
2023-02-01T18:46:48.853Z,87.02
2023-02-01T18:49:18.976Z,86.74
2023-02-01T18:51:47.149Z,86.53
2023-02-01T18:54:15.539Z,86.05
2023-02-01T18:56:46.087Z,85.65
2023-02-01T18:59:14.678Z,85.54
2023-02-01T19:01:45.031Z,85.37
2023-02-01T19:04:15.418Z,85.53
2023-02-01T19:06:49.865Z,85.70
2023-02-01T19:09:18.153Z,85.35
2023-02-01T19:11:46.511Z,85.24
2023-02-01T19:14:14.756Z,84.98
2023-02-01T19:16:44.523Z,84.79
2023-02-01T19:19:12.869Z,85.01
2023-02-01T19:21:41.330Z,84.98
2023-02-01T19:24:09.645Z,85.11
2023-02-01T19:26:38.055Z,85.08
2023-02-01T19:29:06.545Z,84.99
2023-02-01T19:31:34.848Z,84.65
2023-02-01T19:34:03.112Z,84.77
2023-02-01T19:36:31.355Z,85.30
2023-02-01T19:38:59.738Z,85.77
2023-02-01T19:41:28.436Z,86.22
2023-02-01T19:43:58.905Z,86.14
2023-02-01T19:46:28.003Z,86.01
2023-02-01T19:48:56.491Z,85.76
2023-02-01T19:51:24.726Z,85.37
2023-02-01T19:53:53.106Z,85.36
2023-02-01T19:56:21.309Z,85.44
2023-02-01T19:58:51.309Z,85.71
2023-02-01T20:01:18.882Z,85.84
2023-02-01T20:03:47.209Z,85.91
2023-02-01T20:06:15.602Z,86.06
2023-02-01T20:08:44.110Z,86.20
2023-02-01T20:11:12.381Z,86.45
2023-02-01T20:13:41.299Z,86.27
2023-02-01T20:16:11.312Z,86.46
2023-02-01T20:18:39.875Z,86.72
2023-02-01T20:21:07.964Z,86.94
2023-02-01T20:23:37.051Z,87.12
2023-02-01T20:26:07.681Z,87.45
2023-02-01T20:28:36.408Z,87.79
2023-02-01T20:31:05.239Z,87.98
2023-02-01T20:33:33.704Z,88.15
2023-02-01T20:36:01.994Z,88.39
2023-02-01T20:38:30.390Z,88.39
2023-02-01T20:41:03.252Z,88.40
2023-02-01T20:43:32.594Z,88.52
2023-02-01T20:46:00.701Z,88.74
2023-02-01T20:48:29.638Z,88.64
2023-02-01T20:50:58.325Z,88.79
2023-02-01T20:53:27.239Z,88.73
2023-02-01T20:55:58.121Z,88.79
2023-02-01T20:58:26.904Z,88.82
2023-02-01T21:00:55.267Z,88.75
2023-02-01T21:03:23.914Z,88.73
2023-02-01T21:05:54.366Z,88.80
2023-02-01T21:08:23.100Z,89.03
2023-02-01T21:11:00.385Z,89.09
2023-02-01T21:13:31.194Z,89.22
2023-02-01T21:15:59.485Z,89.49
2023-02-01T21:18:29.534Z,89.64
2023-02-01T21:20:58.335Z,89.93
2023-02-01T21:23:27.287Z,89.79
2023-02-01T21:25:55.991Z,89.88
2023-02-01T21:28:24.248Z,89.99
2023-02-01T21:30:53.005Z,90.03
2023-02-01T21:33:21.535Z,90.06
2023-02-01T21:35:52.489Z,90.11
2023-02-01T21:38:20.842Z,89.83
2023-02-01T21:41:10.214Z,89.77
2023-02-01T21:43:38.511Z,89.86
2023-02-01T21:46:08.596Z,89.72
2023-02-01T21:49:03.995Z,89.77
2023-02-01T21:51:27.590Z,89.39
2023-02-01T21:53:56.321Z,89.36
2023-02-01T21:56:24.723Z,89.26
2023-02-01T21:58:53.253Z,89.27
2023-02-01T22:01:21.509Z,89.23
